Weather at Coutts Airport [CLOSED]

Public forecast

Using degrees Celsius for public forecast. Weather courtesy of forecast.io.

Closest aviation weather report (METAR) to Coutts Airport

Closest report is Shelby Airport, 33.0 nm (61.1 km) S.

2024/07/21 03:35 (retrieved 24 minutes ago)

KSBX 210335Z AUTO 05008KT 10SM CLR 25/12 A3028 RMK AO2

Closest aviation forecast (TAF) to Coutts Airport

Forecast is more than 12 hours old.

Closest forecast is Malmstrom Air Force Base, 99.0 nm (183.3 km) SSE.

2024/07/19 13:57 (retrieved 2 days ago)

TAF KGFA 191300Z 1913/2019 VRB06KT 9999 SKC QNH3017INS BECMG 1920/1921 35009KT 9999 FEW120 QNH3016INS TX33/1922Z TN16/2012Z